Time;durP1;ratioP1;P1;durP2;ratioP2;P2;SDS_P1;SDS_P2;PMS_P1;PMS_P2;Temp;Humidity;BMP_temperature;BMP_pressure;BME280_temperature;BME280_humidity;BME280_pressure;Samples;Min_cycle;Max_cycle;Signal;HPM_P1;HPM_P2
2021/05/07 00:02:18;;;;;;;7.50;6.70;;;7.20;87.70;;;;;;5042728;29;20048;-68
2021/05/07 00:04:56;;;;;;;7.57;6.88;;;7.20;87.70;;;;;;5044547;29;20049;-68
2021/05/07 00:07:39;;;;;;;7.80;7.10;;;7.20;87.80;;;;;;5070507;29;20060;-68
2021/05/07 00:10:21;;;;;;;7.25;6.50;;;7.20;88.10;;;;;;5069397;29;20072;-68
2021/05/07 00:12:53;;;;;;;7.75;6.95;;;7.20;87.20;;;;;;5073320;29;20058;-68
2021/05/07 00:15:34;;;;;;;7.50;6.80;;;7.30;87.00;;;;;;5071536;29;20033;-67
2021/05/07 00:18:19;;;;;;;7.90;6.95;;;7.20;86.60;;;;;;5077421;29;20047;-68
2021/05/07 00:20:55;;;;;;;6.88;6.28;;;7.20;86.50;;;;;;5081740;29;20029;-68
2021/05/07 00:23:36;;;;;;;7.72;6.93;;;7.20;86.50;;;;;;5054471;29;20052;-67
2021/05/07 00:26:07;;;;;;;7.30;6.65;;;7.20;85.90;;;;;;5054977;29;20073;-68
2021/05/07 00:28:38;;;;;;;7.15;6.47;;;7.20;86.20;;;;;;5055232;29;20076;-68
2021/05/07 00:31:10;;;;;;;7.13;6.45;;;7.20;86.20;;;;;;5059244;29;20048;-67
2021/05/07 00:33:42;;;;;;;7.25;6.55;;;7.20;85.90;;;;;;5045262;29;20041;-68
2021/05/07 00:36:14;;;;;;;7.15;6.40;;;7.20;86.40;;;;;;5061754;29;20069;-67
2021/05/07 00:38:45;;;;;;;7.90;6.72;;;7.20;86.50;;;;;;5037367;29;20041;-68
2021/05/07 00:41:17;;;;;;;7.55;6.68;;;7.20;86.30;;;;;;5056691;29;20096;-67
2021/05/07 00:43:50;;;;;;;8.27;6.95;;;7.20;86.50;;;;;;5053896;29;20064;-67
2021/05/07 00:46:21;;;;;;;7.45;6.75;;;7.20;86.20;;;;;;5054853;29;20044;-67
2021/05/07 00:48:53;;;;;;;8.00;7.20;;;7.20;86.90;;;;;;5041190;29;20057;-67
2021/05/07 00:51:25;;;;;;;7.75;7.05;;;7.20;87.40;;;;;;5051023;29;20106;-67
2021/05/07 00:53:56;;;;;;;7.47;6.70;;;7.20;87.10;;;;;;5050542;29;20037;-67
2021/05/07 00:56:28;;;;;;;8.35;6.85;;;7.20;87.20;;;;;;5046878;29;20051;-68
2021/05/07 00:59:00;;;;;;;7.93;7.13;;;7.20;87.10;;;;;;5050340;29;20144;-67
2021/05/07 01:01:31;;;;;;;7.68;7.00;;;7.20;87.30;;;;;;5047151;29;20045;-68
2021/05/07 01:04:05;;;;;;;8.40;7.50;;;7.30;87.40;;;;;;5055387;29;20164;-67
2021/05/07 01:06:36;;;;;;;7.90;7.20;;;7.30;86.70;;;;;;5054505;29;20059;-68
2021/05/07 01:09:08;;;;;;;8.10;7.15;;;7.30;86.90;;;;;;5044698;29;20052;-68
2021/05/07 01:11:40;;;;;;;8.18;7.47;;;7.30;87.50;;;;;;5050063;29;20204;-68
2021/05/07 01:14:12;;;;;;;9.40;7.07;;;7.20;87.70;;;;;;5062662;29;20029;-68
2021/05/07 01:16:44;;;;;;;7.78;7.07;;;7.20;88.00;;;;;;5049298;29;20734;-67
2021/05/07 01:19:16;;;;;;;7.90;7.20;;;7.20;88.30;;;;;;5051057;29;20452;-67
2021/05/07 01:21:48;;;;;;;8.43;7.57;;;7.20;88.80;;;;;;5050475;29;20536;-67
2021/05/07 01:24:21;;;;;;;7.88;7.18;;;7.30;88.70;;;;;;5030451;29;20052;-68
2021/05/07 01:26:53;;;;;;;8.23;7.47;;;7.30;88.20;;;;;;5034923;29;20430;-68
2021/05/07 01:29:25;;;;;;;8.70;7.30;;;7.40;87.90;;;;;;5052107;29;20052;-68
2021/05/07 01:31:57;;;;;;;8.05;7.30;;;7.50;87.80;;;;;;5044396;29;20155;-67
2021/05/07 01:34:29;;;;;;;8.05;7.25;;;7.40;87.60;;;;;;5048515;29;20044;-67
2021/05/07 01:37:00;;;;;;;8.55;7.55;;;7.30;88.00;;;;;;5031859;29;20065;-67
2021/05/07 01:39:32;;;;;;;8.18;7.47;;;7.30;88.00;;;;;;5033010;29;20053;-67
2021/05/07 01:42:04;;;;;;;8.57;7.78;;;7.20;88.10;;;;;;5047915;29;20045;-67
2021/05/07 01:44:36;;;;;;;8.40;7.60;;;7.10;88.30;;;;;;5050425;29;20053;-67
2021/05/07 01:47:07;;;;;;;8.00;7.18;;;7.10;87.30;;;;;;5029308;29;20041;-67
2021/05/07 01:49:39;;;;;;;8.45;7.63;;;7.20;87.30;;;;;;5032295;29;20045;-67
2021/05/07 01:52:11;;;;;;;8.40;7.60;;;7.10;87.90;;;;;;5050185;29;21243;-67
2021/05/07 01:54:42;;;;;;;8.00;7.20;;;7.10;87.80;;;;;;5049878;29;20239;-68
2021/05/07 01:57:14;;;;;;;7.53;6.82;;;7.10;88.10;;;;;;5049105;29;20040;-67
2021/05/07 01:59:45;;;;;;;8.63;7.45;;;7.00;87.50;;;;;;5045537;29;20048;-67
2021/05/07 02:02:17;;;;;;;7.90;6.85;;;7.00;87.10;;;;;;5046466;29;20096;-67
2021/05/07 02:04:49;;;;;;;7.72;7.03;;;7.00;86.80;;;;;;5050351;29;20045;-67
2021/05/07 02:07:20;;;;;;;7.38;6.68;;;7.00;86.30;;;;;;5046447;29;20064;-68
2021/05/07 02:09:52;;;;;;;7.63;7.03;;;7.00;86.60;;;;;;5050501;29;20139;-67
2021/05/07 02:12:23;;;;;;;7.40;6.70;;;7.00;86.80;;;;;;5034121;29;20104;-67
2021/05/07 02:14:55;;;;;;;7.85;7.05;;;7.10;86.50;;;;;;5047999;29;20052;-68
2021/05/07 02:17:26;;;;;;;7.22;6.63;;;7.10;86.60;;;;;;5045246;29;20045;-68
2021/05/07 02:19:58;;;;;;;7.63;6.82;;;7.00;86.60;;;;;;5030545;29;20069;-68
2021/05/07 02:22:30;;;;;;;7.97;7.28;;;7.00;86.90;;;;;;5046587;29;20410;-68
2021/05/07 02:25:03;;;;;;;7.70;6.95;;;6.90;86.80;;;;;;5039810;29;20080;-68
2021/05/07 02:27:34;;;;;;;7.43;6.80;;;6.90;86.50;;;;;;5044610;29;20048;-68
2021/05/07 02:30:09;;;;;;;8.25;7.45;;;6.80;86.40;;;;;;5030561;29;20052;-68
2021/05/07 02:32:40;;;;;;;8.25;7.45;;;6.70;86.20;;;;;;5025530;29;20082;-69
2021/05/07 02:35:12;;;;;;;9.65;7.95;;;6.70;85.90;;;;;;5031649;29;20037;-68
2021/05/07 02:37:45;;;;;;;8.77;7.70;;;6.70;86.40;;;;;;5051513;29;20041;-67
2021/05/07 02:40:17;;;;;;;8.65;7.95;;;6.70;86.30;;;;;;5050884;29;20040;-67
2021/05/07 02:42:50;;;;;;;10.55;8.43;;;6.70;87.00;;;;;;5032403;29;20053;-67
2021/05/07 02:45:23;;;;;;;9.43;8.00;;;6.70;87.50;;;;;;5044088;29;20124;-67
2021/05/07 02:47:55;;;;;;;8.10;7.30;;;6.70;87.30;;;;;;5034258;29;20518;-67
2021/05/07 02:50:26;;;;;;;8.38;7.57;;;6.70;87.40;;;;;;5036966;29;20049;-68
2021/05/07 02:52:58;;;;;;;8.10;7.38;;;6.70;87.90;;;;;;5045601;29;20503;-68
2021/05/07 02:55:30;;;;;;;8.80;7.93;;;6.70;87.30;;;;;;5031262;29;20770;-68
2021/05/07 02:58:02;;;;;;;8.45;7.30;;;6.80;87.20;;;;;;5046762;29;20113;-67
2021/05/07 03:00:34;;;;;;;8.85;7.13;;;6.80;87.20;;;;;;5048462;29;20041;-67
2021/05/07 03:03:06;;;;;;;10.95;7.47;;;6.90;87.90;;;;;;5047807;29;20052;-68
2021/05/07 03:05:37;;;;;;;8.80;7.63;;;6.90;88.30;;;;;;5043529;29;20065;-68
2021/05/07 03:08:09;;;;;;;8.20;7.30;;;6.90;88.10;;;;;;5034145;29;20048;-67
2021/05/07 03:10:40;;;;;;;8.00;7.00;;;6.90;87.80;;;;;;5048620;29;20052;-68
2021/05/07 03:13:11;;;;;;;8.10;7.30;;;6.90;87.40;;;;;;5048018;29;20049;-67
2021/05/07 03:15:43;;;;;;;8.07;7.28;;;6.90;87.50;;;;;;5049747;29;20040;-66
2021/05/07 03:18:16;;;;;;;7.95;7.18;;;6.90;88.60;;;;;;5045070;29;20044;-67
2021/05/07 03:20:48;;;;;;;8.52;7.72;;;6.90;87.20;;;;;;5047220;29;20823;-67
2021/05/07 03:23:20;;;;;;;8.40;7.60;;;6.90;88.70;;;;;;5049167;29;20051;-67
2021/05/07 03:25:52;;;;;;;7.82;7.03;;;6.90;87.50;;;;;;5051688;29;20533;-67
2021/05/07 03:28:23;;;;;;;7.75;7.05;;;6.90;87.30;;;;;;5041287;29;20052;-67
2021/05/07 03:30:55;;;;;;;9.18;7.13;;;7.00;87.00;;;;;;5055327;29;20565;-67
2021/05/07 03:33:27;;;;;;;8.23;7.43;;;7.00;87.20;;;;;;5027146;29;20420;-66
2021/05/07 03:35:58;;;;;;;8.18;7.38;;;7.10;87.00;;;;;;5049580;29;20072;-67
2021/05/07 03:38:30;;;;;;;8.55;7.57;;;7.00;87.80;;;;;;5051249;29;20055;-67
2021/05/07 03:41:01;;;;;;;8.73;7.82;;;7.10;87.90;;;;;;5049005;29;20051;-67
2021/05/07 03:43:33;;;;;;;9.98;8.13;;;7.00;87.00;;;;;;5052628;29;20057;-66
2021/05/07 03:46:04;;;;;;;8.10;7.30;;;7.00;86.20;;;;;;5051788;29;20056;-66
2021/05/07 03:48:36;;;;;;;8.60;7.80;;;7.10;86.70;;;;;;5054091;29;20736;-67
2021/05/07 03:51:07;;;;;;;8.27;7.47;;;7.00;86.10;;;;;;5049353;29;20121;-67
2021/05/07 03:53:38;;;;;;;8.00;7.30;;;7.00;86.40;;;;;;5053959;29;20151;-69
2021/05/07 03:56:10;;;;;;;8.70;7.80;;;7.00;85.90;;;;;;5052002;29;20112;-68
2021/05/07 03:58:41;;;;;;;8.50;7.70;;;7.10;85.90;;;;;;5050290;29;20048;-68
2021/05/07 04:01:13;;;;;;;8.40;7.60;;;7.00;86.50;;;;;;5048771;29;20104;-67
2021/05/07 04:03:44;;;;;;;9.10;8.30;;;7.00;87.10;;;;;;5052358;29;20431;-67
2021/05/07 04:06:18;;;;;;;9.35;8.50;;;7.00;87.40;;;;;;5047784;29;20530;-66
2021/05/07 04:09:02;;;;;;;11.52;8.70;;;7.00;87.30;;;;;;5049041;29;20048;-68
2021/05/07 04:11:57;;;;;;;9.02;8.13;;;7.00;87.40;;;;;;5033965;29;20044;-68
2021/05/07 04:14:25;;;;;;;9.35;8.45;;;7.00;87.10;;;;;;5050282;29;20487;-67
2021/05/07 04:16:57;;;;;;;9.10;8.18;;;6.90;87.30;;;;;;5049385;29;20092;-69
2021/05/07 04:19:28;;;;;;;9.48;8.50;;;6.90;87.30;;;;;;5051746;29;20045;-69
2021/05/07 04:22:00;;;;;;;9.50;8.60;;;6.90;87.10;;;;;;5051598;29;20060;-67
2021/05/07 04:24:31;;;;;;;10.35;9.35;;;6.90;87.50;;;;;;5049866;29;20061;-69
2021/05/07 04:27:03;;;;;;;10.20;9.10;;;6.90;87.40;;;;;;5050124;29;20044;-67
2021/05/07 04:29:34;;;;;;;9.75;8.85;;;7.00;87.40;;;;;;5049758;29;20049;-66
2021/05/07 04:32:06;;;;;;;10.30;9.30;;;7.00;87.30;;;;;;5050486;29;20076;-66
2021/05/07 04:34:37;;;;;;;10.20;9.15;;;7.00;87.80;;;;;;5050652;29;20049;-67
2021/05/07 04:37:09;;;;;;;9.63;8.73;;;7.00;83.10;;;;;;5045293;29;20057;-66
2021/05/07 04:39:40;;;;;;;10.00;9.00;;;7.00;86.60;;;;;;5033724;29;20520;-66
2021/05/07 04:42:12;;;;;;;10.00;9.00;;;7.00;85.50;;;;;;5050538;29;20497;-68
2021/05/07 04:44:43;;;;;;;10.35;8.25;;;7.10;85.80;;;;;;5051047;29;20484;-67
2021/05/07 04:47:14;;;;;;;8.95;8.00;;;7.10;83.30;;;;;;5047086;29;20084;-67
2021/05/07 04:49:46;;;;;;;8.70;7.90;;;7.20;83.40;;;;;;5034598;29;20049;-66
2021/05/07 04:52:17;;;;;;;9.23;8.30;;;7.20;82.50;;;;;;5045445;29;20049;-66
2021/05/07 04:54:50;;;;;;;10.57;8.27;;;7.40;82.90;;;;;;5047690;29;20048;-67
2021/05/07 04:57:21;;;;;;;9.77;7.78;;;7.40;84.80;;;;;;5046653;29;20560;-66
2021/05/07 04:59:52;;;;;;;8.93;8.13;;;7.50;85.90;;;;;;5047210;29;20156;-66
2021/05/07 05:02:26;;;;;;;9.18;8.27;;;7.50;85.40;;;;;;5046107;29;20060;-67
2021/05/07 05:04:58;;;;;;;8.52;7.72;;;7.50;82.50;;;;;;5050325;29;20055;-66
2021/05/07 05:07:30;;;;;;;9.25;8.15;;;7.50;83.80;;;;;;5030179;29;20094;-67
2021/05/07 05:10:05;;;;;;;8.43;7.57;;;7.60;84.20;;;;;;5041515;29;20569;-66
2021/05/07 05:12:36;;;;;;;9.60;8.57;;;7.70;84.70;;;;;;5032679;29;20124;-65
2021/05/07 05:15:09;;;;;;;9.73;8.82;;;7.70;85.10;;;;;;5024592;29;20048;-63
2021/05/07 05:17:40;;;;;;;9.40;8.50;;;7.80;85.50;;;;;;5043596;29;20128;-64
2021/05/07 05:20:12;;;;;;;9.10;8.30;;;7.80;86.30;;;;;;5045317;29;20059;-64
2021/05/07 05:22:45;;;;;;;9.77;8.40;;;7.70;86.30;;;;;;5049047;29;20105;-63
2021/05/07 05:25:16;;;;;;;9.93;8.95;;;7.70;86.00;;;;;;5047713;29;20057;-65
2021/05/07 05:27:48;;;;;;;9.38;8.40;;;7.70;87.40;;;;;;5047575;29;20432;-64
2021/05/07 05:30:21;;;;;;;9.38;8.48;;;7.70;87.00;;;;;;5048831;29;20418;-66
2021/05/07 05:32:53;;;;;;;8.70;7.85;;;7.70;86.30;;;;;;5048150;29;20671;-65
2021/05/07 05:35:24;;;;;;;8.95;8.20;;;7.80;85.90;;;;;;5047256;29;20480;-63
2021/05/07 05:37:56;;;;;;;9.27;8.48;;;8.00;84.40;;;;;;5048564;29;20043;-64
2021/05/07 05:40:27;;;;;;;8.88;8.07;;;8.00;84.90;;;;;;5047069;29;20047;-63
2021/05/07 05:43:00;;;;;;;8.95;8.18;;;8.00;84.60;;;;;;5048708;29;20039;-63
2021/05/07 05:45:32;;;;;;;9.00;8.20;;;8.00;84.50;;;;;;5049621;29;20053;-66
2021/05/07 05:48:09;;;;;;;8.48;7.78;;;8.10;84.50;;;;;;5048472;29;20123;-63
2021/05/07 05:50:48;;;;;;;8.50;7.80;;;8.10;85.00;;;;;;5049526;29;20048;-63
2021/05/07 05:53:20;;;;;;;8.70;7.97;;;8.10;83.80;;;;;;5041532;29;20052;-64
2021/05/07 05:55:51;;;;;;;8.18;7.50;;;8.10;84.00;;;;;;5050434;29;20301;-63
2021/05/07 05:58:23;;;;;;;8.40;7.70;;;8.10;83.60;;;;;;5048980;29;20045;-63
2021/05/07 06:00:54;;;;;;;8.25;7.55;;;8.10;83.70;;;;;;5046082;29;20482;-63
2021/05/07 06:03:26;;;;;;;7.90;7.20;;;8.00;83.60;;;;;;5047456;29;20064;-64
2021/05/07 06:05:57;;;;;;;8.13;7.43;;;8.00;84.80;;;;;;5048085;29;20052;-64
2021/05/07 06:08:29;;;;;;;8.38;7.45;;;8.00;85.10;;;;;;5047494;29;20530;-63
2021/05/07 06:11:00;;;;;;;8.50;7.80;;;7.90;85.00;;;;;;5045280;29;20129;-63
2021/05/07 06:13:32;;;;;;;8.07;7.38;;;7.90;83.90;;;;;;5050301;29;20059;-63
2021/05/07 06:16:04;;;;;;;8.20;7.50;;;8.00;84.60;;;;;;5047833;29;20076;-63
2021/05/07 06:18:35;;;;;;;8.10;7.38;;;8.00;83.20;;;;;;5048631;29;20049;-62
2021/05/07 06:21:07;;;;;;;8.75;7.95;;;8.00;83.00;;;;;;5047853;29;20535;-64
2021/05/07 06:23:39;;;;;;;7.90;7.30;;;8.00;83.30;;;;;;5046273;29;20056;-64
2021/05/07 06:26:10;;;;;;;7.97;7.35;;;8.10;84.00;;;;;;5053340;29;20509;-63
2021/05/07 06:28:42;;;;;;;7.72;7.13;;;8.20;84.80;;;;;;5050110;29;20052;-63
2021/05/07 06:31:13;;;;;;;8.00;7.40;;;8.30;82.10;;;;;;5048367;29;20167;-63
2021/05/07 06:33:45;;;;;;;8.10;7.40;;;8.30;82.80;;;;;;5046367;29;20037;-63
2021/05/07 06:36:18;;;;;;;8.88;8.05;;;8.40;82.00;;;;;;5047979;29;20116;-62
2021/05/07 06:38:49;;;;;;;17.02;13.05;;;8.50;82.90;;;;;;5047760;29;20076;-63
2021/05/07 06:41:22;;;;;;;10.77;9.70;;;8.50;84.30;;;;;;5018373;29;20056;-65
2021/05/07 06:43:53;;;;;;;10.85;9.57;;;8.60;84.30;;;;;;5044506;29;20821;-63
2021/05/07 06:46:25;;;;;;;8.85;8.05;;;8.70;85.00;;;;;;5045565;29;20061;-63
2021/05/07 06:48:56;;;;;;;9.90;8.90;;;8.80;83.10;;;;;;5049465;29;20456;-64
2021/05/07 06:51:28;;;;;;;9.50;8.70;;;8.80;82.50;;;;;;5047414;29;20409;-63
2021/05/07 06:53:59;;;;;;;8.88;8.15;;;8.80;82.00;;;;;;5047641;29;20044;-63
2021/05/07 06:56:31;;;;;;;9.30;8.50;;;8.80;82.80;;;;;;5044004;29;20052;-63
2021/05/07 06:59:03;;;;;;;9.38;8.52;;;8.90;82.30;;;;;;5038863;29;20460;-63
2021/05/07 07:01:38;;;;;;;9.50;8.63;;;8.90;80.20;;;;;;5050551;29;20789;-63
2021/05/07 07:04:09;;;;;;;10.40;9.50;;;8.90;81.40;;;;;;5048958;29;20073;-63
2021/05/07 07:06:41;;;;;;;9.48;8.43;;;9.00;82.30;;;;;;5053287;29;20060;-63
2021/05/07 07:09:14;;;;;;;8.93;8.23;;;9.00;82.60;;;;;;5052255;29;20053;-63
2021/05/07 07:11:52;;;;;;;9.07;8.27;;;9.00;82.90;;;;;;5052817;29;20080;-63
2021/05/07 07:14:23;;;;;;;8.55;7.85;;;8.80;81.30;;;;;;5053592;29;20045;-63
2021/05/07 07:16:55;;;;;;;8.50;7.80;;;8.70;80.60;;;;;;5055154;29;20063;-63
2021/05/07 07:19:26;;;;;;;9.23;8.38;;;8.60;81.20;;;;;;5052412;29;20135;-63
2021/05/07 07:22:07;;;;;;;8.73;7.93;;;8.40;79.70;;;;;;5052051;29;20394;-63
2021/05/07 07:24:39;;;;;;;7.93;7.22;;;8.30;81.30;;;;;;5052513;29;20049;-63
2021/05/07 07:27:10;;;;;;;8.55;7.75;;;8.30;80.00;;;;;;5052078;29;20099;-63
2021/05/07 07:29:43;;;;;;;8.00;7.30;;;8.20;81.60;;;;;;5038150;29;20607;-63
2021/05/07 07:32:18;;;;;;;8.23;7.60;;;8.20;82.50;;;;;;5055087;29;20213;-64
2021/05/07 07:34:54;;;;;;;7.78;7.07;;;8.20;83.10;;;;;;5036140;29;20059;-63
2021/05/07 07:37:26;;;;;;;8.30;7.50;;;8.30;84.10;;;;;;5049866;29;20053;-63
2021/05/07 07:39:57;;;;;;;8.23;7.53;;;8.30;84.90;;;;;;5033552;29;20048;-62
2021/05/07 07:42:28;;;;;;;8.15;7.55;;;8.50;84.80;;;;;;5049631;29;20053;-62
2021/05/07 07:45:01;;;;;;;8.70;8.00;;;8.50;80.10;;;;;;5042516;29;20120;-63
2021/05/07 07:47:32;;;;;;;7.70;7.10;;;8.60;81.80;;;;;;5049969;29;20056;-63
2021/05/07 07:50:06;;;;;;;7.93;7.13;;;8.60;81.00;;;;;;5050845;29;20045;-63
2021/05/07 07:52:38;;;;;;;7.88;7.18;;;8.70;81.90;;;;;;5053114;29;20112;-63
2021/05/07 07:55:10;;;;;;;8.75;7.95;;;8.70;83.30;;;;;;5052425;29;20044;-63
2021/05/07 07:57:42;;;;;;;8.27;7.22;;;8.70;83.20;;;;;;5047865;29;20073;-62
2021/05/07 08:00:14;;;;;;;8.02;7.22;;;8.70;82.00;;;;;;5050720;29;20627;-64
2021/05/07 08:02:46;;;;;;;8.50;7.70;;;8.70;82.70;;;;;;5052737;29;20041;-63
2021/05/07 08:05:18;;;;;;;8.10;7.40;;;8.80;81.60;;;;;;5047650;29;20045;-63
2021/05/07 08:07:49;;;;;;;8.40;7.60;;;8.90;82.60;;;;;;5050425;29;20116;-64
2021/05/07 08:10:21;;;;;;;7.90;7.20;;;9.00;81.90;;;;;;5036995;29;20131;-64
2021/05/07 08:12:52;;;;;;;8.60;7.90;;;9.20;76.10;;;;;;5052302;29;20049;-64
2021/05/07 08:15:26;;;;;;;8.30;7.60;;;9.40;72.70;;;;;;5053196;29;20056;-65
2021/05/07 08:17:57;;;;;;;8.40;7.70;;;9.70;75.10;;;;;;5053532;29;20152;-63
2021/05/07 08:20:29;;;;;;;8.98;8.07;;;9.80;76.10;;;;;;5050811;29;20060;-64
2021/05/07 08:23:01;;;;;;;8.60;7.90;;;10.10;77.90;;;;;;5048914;29;20049;-63
2021/05/07 08:25:32;;;;;;;8.95;8.25;;;10.40;78.60;;;;;;5050915;29;20052;-63
2021/05/07 08:28:04;;;;;;;8.60;7.90;;;10.80;76.20;;;;;;5048743;29;20119;-63
2021/05/07 08:30:36;;;;;;;8.75;7.95;;;10.90;76.70;;;;;;5031469;29;20055;-64
2021/05/07 08:33:09;;;;;;;8.23;7.53;;;11.00;76.90;;;;;;5051319;29;20127;-63
2021/05/07 08:35:40;;;;;;;8.20;7.50;;;11.00;76.60;;;;;;5053591;29;20051;-63
2021/05/07 08:38:12;;;;;;;7.65;6.95;;;10.90;77.30;;;;;;5051475;29;20049;-63
2021/05/07 08:40:43;;;;;;;8.00;7.30;;;10.70;76.10;;;;;;5049443;29;20690;-64
2021/05/07 08:43:15;;;;;;;7.60;7.00;;;10.50;75.50;;;;;;5033617;29;20506;-63
2021/05/07 08:45:47;;;;;;;7.10;6.50;;;10.20;74.30;;;;;;5049826;29;20057;-63
2021/05/07 08:48:20;;;;;;;7.30;6.70;;;9.90;74.40;;;;;;5048649;29;20048;-64
2021/05/07 08:50:53;;;;;;;7.50;6.80;;;9.80;74.30;;;;;;5047319;29;20045;-63
2021/05/07 08:53:26;;;;;;;6.88;6.28;;;9.60;75.30;;;;;;5049209;29;20071;-62
2021/05/07 08:56:05;;;;;;;7.30;6.60;;;9.50;74.50;;;;;;5050969;29;20079;-63
2021/05/07 08:58:37;;;;;;;6.55;5.95;;;9.20;73.30;;;;;;5035515;29;20044;-64
2021/05/07 09:01:08;;;;;;;6.78;6.18;;;9.10;72.90;;;;;;5047169;29;20037;-63
2021/05/07 09:03:45;;;;;;;6.85;6.25;;;8.90;73.70;;;;;;5048948;29;20074;-64
2021/05/07 09:06:22;;;;;;;6.78;6.18;;;8.90;75.70;;;;;;5033311;29;20048;-63
2021/05/07 09:08:53;;;;;;;6.32;5.80;;;8.80;73.60;;;;;;5051126;29;20760;-63
2021/05/07 09:11:25;;;;;;;6.10;5.60;;;8.50;72.40;;;;;;5032343;29;20915;-62
2021/05/07 09:14:03;;;;;;;5.80;5.30;;;8.40;73.50;;;;;;5050614;29;20524;-64
2021/05/07 09:16:34;;;;;;;6.00;5.50;;;8.40;75.00;;;;;;5032118;29;20128;-62
2021/05/07 09:19:17;;;;;;;6.35;5.25;;;8.30;75.40;;;;;;5050399;29;20052;-62
2021/05/07 09:21:49;;;;;;;5.72;5.22;;;8.30;76.30;;;;;;5051333;29;20052;-62
2021/05/07 09:24:30;;;;;;;6.10;5.60;;;8.40;76.20;;;;;;5049694;29;20052;-65
2021/05/07 09:27:02;;;;;;;7.30;6.60;;;8.50;76.00;;;;;;5047828;29;20056;-63
2021/05/07 09:29:37;;;;;;;6.60;6.00;;;8.50;74.90;;;;;;5048019;29;20045;-64
2021/05/07 09:32:09;;;;;;;5.75;5.18;;;8.50;75.20;;;;;;5047792;29;20041;-63
2021/05/07 09:34:42;;;;;;;6.22;5.63;;;8.60;76.00;;;;;;5048762;29;20109;-63
2021/05/07 09:37:18;;;;;;;5.90;5.30;;;8.70;76.10;;;;;;5049320;29;20094;-63
2021/05/07 09:39:55;;;;;;;6.32;5.72;;;8.60;73.80;;;;;;5047765;29;20036;-63
2021/05/07 09:42:26;;;;;;;6.90;6.20;;;8.50;75.70;;;;;;5036836;29;20053;-63
2021/05/07 09:44:58;;;;;;;6.38;5.78;;;8.60;77.30;;;;;;5032966;29;20120;-63
2021/05/07 09:47:32;;;;;;;5.95;5.35;;;8.70;76.30;;;;;;5045495;29;20143;-62
2021/05/07 09:50:05;;;;;;;5.90;5.40;;;8.90;74.70;;;;;;5046270;29;20049;-63
2021/05/07 09:52:37;;;;;;;5.70;5.20;;;9.00;75.00;;;;;;5045612;29;20129;-63
2021/05/07 09:55:09;;;;;;;6.10;5.50;;;9.10;74.40;;;;;;5049343;29;20470;-63
2021/05/07 09:57:41;;;;;;;6.60;6.00;;;9.00;73.40;;;;;;5040817;29;20067;-62
2021/05/07 10:00:13;;;;;;;6.72;5.68;;;8.80;73.30;;;;;;5046153;29;20057;-62
2021/05/07 10:02:49;;;;;;;6.18;5.57;;;8.70;74.30;;;;;;5049032;29;20076;-63
2021/05/07 10:05:21;;;;;;;6.53;5.80;;;8.60;74.30;;;;;;5046107;29;20048;-63
2021/05/07 10:07:53;;;;;;;9.50;5.75;;;8.70;75.70;;;;;;5049065;29;20049;-63
2021/05/07 10:10:27;;;;;;;6.05;5.55;;;8.70;74.50;;;;;;5048651;29;20044;-63
2021/05/07 10:13:00;;;;;;;6.30;5.80;;;8.60;77.20;;;;;;5046907;29;20638;-63
2021/05/07 10:15:37;;;;;;;6.03;5.53;;;8.60;73.30;;;;;;5044668;29;20100;-63
2021/05/07 10:18:11;;;;;;;6.50;5.90;;;8.80;74.60;;;;;;5029351;29;20080;-64
2021/05/07 10:20:42;;;;;;;6.60;6.00;;;8.80;75.20;;;;;;5045611;29;20048;-62
2021/05/07 10:23:20;;;;;;;6.63;6.03;;;8.90;75.70;;;;;;5048605;29;20387;-64
2021/05/07 10:25:59;;;;;;;6.68;6.07;;;9.00;76.20;;;;;;5046149;29;20166;-62
2021/05/07 10:28:46;;;;;;;6.85;6.22;;;9.10;76.80;;;;;;5028578;29;20067;-63
2021/05/07 10:31:19;;;;;;;6.60;6.00;;;9.20;76.40;;;;;;5046792;29;20043;-63
2021/05/07 10:34:02;;;;;;;6.72;6.13;;;9.10;74.70;;;;;;5046059;29;20549;-63
2021/05/07 10:36:56;;;;;;;7.47;5.70;;;9.00;73.10;;;;;;5047465;29;20045;-63
2021/05/07 10:39:33;;;;;;;6.38;5.78;;;8.80;74.50;;;;;;5050335;29;20104;-63
2021/05/07 10:42:14;;;;;;;7.75;7.05;;;8.90;76.50;;;;;;5041302;29;20133;-63
2021/05/07 10:44:45;;;;;;;6.65;6.05;;;8.90;78.00;;;;;;5045381;29;20938;-64
2021/05/07 10:47:17;;;;;;;6.70;6.10;;;8.80;76.50;;;;;;5042773;29;20060;-63
2021/05/07 10:49:50;;;;;;;7.07;6.47;;;8.90;78.10;;;;;;5033066;29;20057;-64
2021/05/07 10:52:21;;;;;;;6.60;6.00;;;9.00;76.80;;;;;;5016243;29;20048;-64
2021/05/07 10:55:05;;;;;;;6.45;5.85;;;9.00;75.70;;;;;;5045860;29;20048;-63
2021/05/07 10:57:39;;;;;;;6.25;5.72;;;8.80;75.50;;;;;;5045208;29;20164;-63
2021/05/07 11:00:15;;;;;;;6.53;5.93;;;8.70;73.70;;;;;;5049998;29;20041;-63
2021/05/07 11:02:51;;;;;;;7.32;6.63;;;8.70;74.80;;;;;;5048156;29;20136;-64
2021/05/07 11:05:40;;;;;;;7.20;6.50;;;8.70;76.20;;;;;;5048435;29;20052;-63
2021/05/07 11:08:11;;;;;;;11.93;9.98;;;9.00;77.70;;;;;;5049612;29;20052;-63
2021/05/07 11:10:43;;;;;;;7.40;6.70;;;9.10;77.10;;;;;;5047656;29;20076;-63
2021/05/07 11:13:18;;;;;;;6.60;6.00;;;9.20;77.80;;;;;;5050304;29;20410;-63
2021/05/07 11:15:59;;;;;;;7.00;6.25;;;9.30;77.90;;;;;;5047319;29;20236;-63
2021/05/07 11:18:32;;;;;;;6.47;5.88;;;9.50;78.70;;;;;;5049266;29;20040;-63
2021/05/07 11:21:14;;;;;;;6.50;5.90;;;9.50;77.20;;;;;;5046386;29;20260;-63
2021/05/07 11:24:12;;;;;;;6.20;5.60;;;9.70;74.90;;;;;;5046957;29;20113;-64
2021/05/07 11:26:44;;;;;;;12.50;6.30;;;9.70;75.10;;;;;;5049356;29;20048;-63
2021/05/07 11:29:32;;;;;;;7.78;6.53;;;9.70;74.50;;;;;;5036191;29;20049;-63
2021/05/07 11:32:15;;;;;;;6.80;6.20;;;9.70;76.60;;;;;;5050495;29;20041;-64
2021/05/07 11:34:52;;;;;;;7.63;5.95;;;9.70;75.00;;;;;;5047673;29;20456;-63
2021/05/07 11:37:26;;;;;;;6.18;5.68;;;9.60;75.70;;;;;;5045940;29;20041;-65
2021/05/07 11:40:14;;;;;;;6.47;5.88;;;9.50;72.90;;;;;;5048005;29;20045;-63
2021/05/07 11:42:47;;;;;;;5.93;5.43;;;9.60;72.00;;;;;;5044144;29;20061;-63
2021/05/07 11:45:22;;;;;;;5.78;5.28;;;9.40;69.20;;;;;;5051970;29;20643;-65
2021/05/07 11:47:54;;;;;;;5.50;5.00;;;9.20;70.70;;;;;;5051343;29;20490;-64
2021/05/07 11:50:26;;;;;;;5.40;4.90;;;9.30;72.30;;;;;;5052687;29;20101;-63
2021/05/07 11:52:58;;;;;;;5.80;5.30;;;9.50;72.70;;;;;;5054367;29;20048;-63
2021/05/07 11:55:32;;;;;;;5.50;5.00;;;9.60;69.50;;;;;;5049686;29;20053;-63
2021/05/07 11:58:04;;;;;;;5.70;5.20;;;9.50;69.80;;;;;;5050273;29;20757;-63
2021/05/07 12:00:40;;;;;;;5.60;5.10;;;9.50;74.30;;;;;;5049840;29;20081;-63
2021/05/07 12:03:17;;;;;;;5.70;5.20;;;9.60;71.50;;;;;;5051558;29;20515;-63
2021/05/07 12:05:49;;;;;;;6.38;5.78;;;9.50;69.30;;;;;;5053080;29;20529;-63
2021/05/07 12:08:27;;;;;;;6.40;5.80;;;9.30;71.80;;;;;;5052687;29;20044;-63
2021/05/07 12:11:09;;;;;;;6.70;6.10;;;9.30;74.40;;;;;;5049785;29;20135;-64
2021/05/07 12:13:42;;;;;;;6.57;5.97;;;9.40;74.20;;;;;;5051132;29;20455;-64
2021/05/07 12:16:14;;;;;;;6.00;5.50;;;9.50;73.00;;;;;;5038878;29;20048;-63
2021/05/07 12:18:54;;;;;;;7.28;6.68;;;9.60;73.70;;;;;;5053007;29;20519;-64
2021/05/07 12:21:25;;;;;;;5.93;5.43;;;9.50;73.30;;;;;;5052128;29;20064;-63
2021/05/07 12:23:57;;;;;;;6.03;5.53;;;9.10;72.70;;;;;;5055573;29;20040;-63
2021/05/07 12:26:28;;;;;;;5.70;5.20;;;9.20;74.00;;;;;;5053636;29;20049;-63
2021/05/07 12:29:00;;;;;;;5.53;5.03;;;9.40;75.40;;;;;;5054081;29;20884;-63
2021/05/07 12:31:33;;;;;;;5.93;5.43;;;9.40;72.20;;;;;;5048257;29;20080;-63
2021/05/07 12:34:15;;;;;;;5.75;5.25;;;9.40;73.80;;;;;;5049442;29;20052;-63
2021/05/07 12:37:00;;;;;;;5.63;5.13;;;9.40;74.70;;;;;;5048796;29;20820;-63
2021/05/07 12:39:34;;;;;;;5.97;5.47;;;9.40;72.10;;;;;;5049522;29;20967;-63
2021/05/07 12:42:07;;;;;;;6.60;6.00;;;9.40;71.20;;;;;;5049534;29;20052;-63
2021/05/07 12:44:38;;;;;;;6.28;5.78;;;9.60;73.90;;;;;;5048895;29;20108;-63
2021/05/07 12:47:09;;;;;;;5.75;5.25;;;9.70;72.00;;;;;;5042012;29;20045;-63
2021/05/07 12:49:41;;;;;;;6.10;5.60;;;9.80;73.40;;;;;;5052010;29;20136;-63
2021/05/07 12:52:12;;;;;;;6.05;5.55;;;10.00;74.80;;;;;;5049179;29;20045;-63
2021/05/07 12:54:45;;;;;;;6.10;5.60;;;10.00;73.30;;;;;;5051968;29;20064;-63
2021/05/07 12:57:16;;;;;;;6.70;6.10;;;10.10;70.40;;;;;;5049860;29;20041;-64
2021/05/07 12:59:48;;;;;;;6.40;5.80;;;10.20;73.70;;;;;;5050122;29;20044;-62
2021/05/07 13:02:20;;;;;;;6.70;6.10;;;10.30;71.70;;;;;;5049138;29;20049;-63
2021/05/07 13:04:51;;;;;;;6.30;5.80;;;10.50;72.90;;;;;;5051863;29;20053;-63
2021/05/07 13:07:23;;;;;;;6.88;6.28;;;10.50;71.00;;;;;;5048365;29;20682;-63
2021/05/07 13:09:56;;;;;;;6.93;6.32;;;10.60;72.10;;;;;;5050180;29;20072;-62
2021/05/07 13:12:27;;;;;;;7.10;6.50;;;10.70;68.30;;;;;;5046990;29;20060;-64
2021/05/07 13:15:02;;;;;;;7.30;6.70;;;10.80;67.80;;;;;;5047020;29;20100;-63
2021/05/07 13:17:33;;;;;;;6.93;6.32;;;11.00;69.50;;;;;;5048628;29;20136;-65
2021/05/07 13:20:06;;;;;;;6.90;6.30;;;11.20;67.40;;;;;;5049259;29;20037;-64
2021/05/07 13:22:37;;;;;;;7.10;6.50;;;11.30;67.10;;;;;;5048311;29;20539;-65
2021/05/07 13:25:10;;;;;;;6.70;6.10;;;11.30;64.50;;;;;;5048364;29;20049;-66
2021/05/07 13:27:41;;;;;;;6.80;6.20;;;11.30;66.60;;;;;;5050073;29;20518;-63